Time;durP1;ratioP1;P1;durP2;ratioP2;P2;SDS_P1;SDS_P2;PMS_P1;PMS_P2;Temp;Humidity;BMP_temperature;BMP_pressure;BME280_temperature;BME280_humidity;BME280_pressure;Samples;Min_cycle;Max_cycle;Signal;HPM_P1;HPM_P2
2022/04/03 00:01:11;;;;;;;8.93;7.07;;;;;;;;;;5084518;28;20244;-74
2022/04/03 00:03:36;;;;;;;8.20;7.07;;;;;;;;;;5089579;28;20185;-73
2022/04/03 00:06:01;;;;;;;13.57;9.20;;;;;;;;;;5085630;28;20186;-74
2022/04/03 00:08:28;;;;;;;9.70;7.90;;;;;;;;;;5086188;28;20255;-73
2022/04/03 00:10:53;;;;;;;8.67;7.20;;;;;;;;;;5085296;28;20207;-74
2022/04/03 00:13:19;;;;;;;11.37;7.87;;;;;;;;;;5081466;28;20174;-73
2022/04/03 00:15:44;;;;;;;8.07;6.67;;;;;;;;;;5086649;28;20227;-74
2022/04/03 00:18:09;;;;;;;9.20;6.87;;;;;;;;;;5093647;28;20173;-73
2022/04/03 00:20:36;;;;;;;6.73;5.00;;;;;;;;;;5089326;28;20176;-73
2022/04/03 00:23:01;;;;;;;9.33;7.23;;;;;;;;;;5084590;28;20185;-73
2022/04/03 00:25:26;;;;;;;8.67;6.87;;;;;;;;;;5086989;28;20176;-74
2022/04/03 00:27:51;;;;;;;12.43;7.67;;;;;;;;;;5092423;28;20187;-74
2022/04/03 00:30:16;;;;;;;8.77;7.37;;;;;;;;;;5092246;28;20184;-73
2022/04/03 00:32:42;;;;;;;9.20;6.80;;;;;;;;;;5091204;28;20214;-74
2022/04/03 00:35:07;;;;;;;10.20;7.83;;;;;;;;;;5082681;28;20260;-73
2022/04/03 00:37:32;;;;;;;9.37;6.77;;;;;;;;;;5079469;28;20196;-74
2022/04/03 00:39:58;;;;;;;9.23;6.67;;;;;;;;;;5090488;28;20200;-73
2022/04/03 00:42:23;;;;;;;9.80;7.33;;;;;;;;;;5082973;28;20177;-73
2022/04/03 00:44:48;;;;;;;9.23;7.20;;;;;;;;;;5088057;28;20260;-74
2022/04/03 00:47:14;;;;;;;9.73;7.43;;;;;;;;;;5089124;28;20183;-73
2022/04/03 00:49:40;;;;;;;9.60;7.83;;;;;;;;;;5086799;28;20223;-73
2022/04/03 00:52:05;;;;;;;8.50;6.53;;;;;;;;;;5088177;28;20189;-74
2022/04/03 00:54:30;;;;;;;11.17;7.50;;;;;;;;;;5086421;28;20183;-74
2022/04/03 00:56:56;;;;;;;8.97;7.27;;;;;;;;;;5093265;28;20172;-73
2022/04/03 00:59:21;;;;;;;9.60;7.77;;;;;;;;;;5081284;28;20238;-73
2022/04/03 01:01:47;;;;;;;10.67;8.60;;;;;;;;;;5086909;28;20461;-74
2022/04/03 01:04:12;;;;;;;10.30;8.20;;;;;;;;;;5087551;28;20200;-73
2022/04/03 01:06:37;;;;;;;11.10;7.43;;;;;;;;;;5083848;28;20260;-73
2022/04/03 01:09:03;;;;;;;9.30;6.87;;;;;;;;;;5090991;28;20181;-74
2022/04/03 01:11:29;;;;;;;9.90;7.30;;;;;;;;;;5081518;28;20247;-73
2022/04/03 01:13:55;;;;;;;10.07;6.60;;;;;;;;;;5083752;28;20199;-73
2022/04/03 01:16:20;;;;;;;15.10;8.50;;;;;;;;;;5083145;28;20228;-73
2022/04/03 01:18:45;;;;;;;9.53;7.20;;;;;;;;;;5088045;28;20172;-73
2022/04/03 01:21:11;;;;;;;10.83;8.90;;;;;;;;;;5087794;28;20175;-73
2022/04/03 01:23:36;;;;;;;11.30;8.43;;;;;;;;;;5092857;28;20191;-74
2022/04/03 01:26:02;;;;;;;10.97;7.47;;;;;;;;;;5088394;28;20181;-73
2022/04/03 01:28:27;;;;;;;11.73;7.70;;;;;;;;;;5081481;28;20187;-74
2022/04/03 01:30:52;;;;;;;11.87;7.70;;;;;;;;;;5088089;28;20239;-74
2022/04/03 01:33:17;;;;;;;10.30;7.70;;;;;;;;;;5090598;28;20191;-74
2022/04/03 01:35:43;;;;;;;11.20;6.87;;;;;;;;;;5080405;28;20203;-74
2022/04/03 01:38:09;;;;;;;10.53;8.67;;;;;;;;;;5090807;28;20177;-74
2022/04/03 01:40:35;;;;;;;10.83;7.70;;;;;;;;;;5092357;28;20194;-73
2022/04/03 01:43:04;;;;;;;11.73;8.33;;;;;;;;;;5086200;28;20184;-73
2022/04/03 01:45:29;;;;;;;10.40;8.27;;;;;;;;;;5085710;28;20172;-74
2022/04/03 01:47:54;;;;;;;11.43;8.47;;;;;;;;;;5084245;28;20252;-73
2022/04/03 01:50:20;;;;;;;11.87;8.37;;;;;;;;;;5082154;28;20177;-73
2022/04/03 01:52:45;;;;;;;10.37;8.23;;;;;;;;;;5085866;28;20192;-73
2022/04/03 01:55:10;;;;;;;12.40;9.20;;;;;;;;;;5088326;28;20204;-74
2022/04/03 01:57:36;;;;;;;10.80;7.70;;;;;;;;;;5085092;28;20188;-73
2022/04/03 02:00:05;;;;;;;12.27;8.67;;;;;;;;;;5082817;28;20240;-73
2022/04/03 02:02:31;;;;;;;12.63;8.53;;;;;;;;;;5086641;28;20238;-74
2022/04/03 02:04:56;;;;;;;14.10;9.40;;;;;;;;;;5092343;28;20465;-74
2022/04/03 02:07:21;;;;;;;9.90;7.77;;;;;;;;;;5088929;28;20187;-73
2022/04/03 02:09:47;;;;;;;13.10;8.93;;;;;;;;;;5090364;28;20410;-74
2022/04/03 02:12:12;;;;;;;11.13;8.10;;;;;;;;;;5087783;28;20254;-73
2022/04/03 02:14:38;;;;;;;10.40;7.83;;;;;;;;;;5090337;28;20220;-73
2022/04/03 02:17:03;;;;;;;11.63;9.40;;;;;;;;;;5092628;28;20173;-74
2022/04/03 02:19:28;;;;;;;10.77;8.70;;;;;;;;;;5079603;28;20215;-74
2022/04/03 02:21:53;;;;;;;11.40;8.77;;;;;;;;;;5089255;28;20172;-74
2022/04/03 02:24:19;;;;;;;14.50;9.43;;;;;;;;;;5082909;28;20189;-74
2022/04/03 02:26:44;;;;;;;11.50;8.10;;;;;;;;;;5090707;28;20260;-73
2022/04/03 02:29:09;;;;;;;13.40;9.90;;;;;;;;;;5090299;28;20183;-73
2022/04/03 02:31:34;;;;;;;12.50;8.43;;;;;;;;;;5092275;28;20200;-73
2022/04/03 02:33:59;;;;;;;11.43;8.73;;;;;;;;;;5088512;28;20211;-74
2022/04/03 02:36:24;;;;;;;14.70;9.03;;;;;;;;;;5084931;28;20173;-74
2022/04/03 02:38:50;;;;;;;12.80;9.93;;;;;;;;;;5085500;28;20186;-73
2022/04/03 02:41:15;;;;;;;12.77;9.17;;;;;;;;;;5087944;28;20247;-73
2022/04/03 02:43:40;;;;;;;13.33;9.43;;;;;;;;;;5090717;28;20212;-74
2022/04/03 02:46:06;;;;;;;10.33;8.07;;;;;;;;;;5086107;28;20311;-73
2022/04/03 02:48:32;;;;;;;13.27;9.27;;;;;;;;;;5092365;28;20314;-74
2022/04/03 02:50:57;;;;;;;8.33;5.80;;;;;;;;;;5091954;28;20259;-73
2022/04/03 02:53:22;;;;;;;10.13;7.93;;;;;;;;;;5091169;28;20187;-73
2022/04/03 02:55:47;;;;;;;9.90;7.47;;;;;;;;;;5083612;28;20172;-73
2022/04/03 02:58:13;;;;;;;9.30;7.47;;;;;;;;;;5086419;28;20300;-73
2022/04/03 03:00:38;;;;;;;12.17;8.40;;;;;;;;;;5086650;28;20220;-73
2022/04/03 03:03:06;;;;;;;11.70;8.23;;;;;;;;;;5086227;28;20172;-73
2022/04/03 03:05:32;;;;;;;10.13;8.40;;;;;;;;;;5081649;28;20194;-73
2022/04/03 03:07:58;;;;;;;11.20;8.10;;;;;;;;;;5087049;28;20177;-73
2022/04/03 03:10:24;;;;;;;11.13;8.50;;;;;;;;;;5083601;28;20192;-73
2022/04/03 03:12:50;;;;;;;10.03;8.17;;;;;;;;;;5082261;28;20277;-74
2022/04/03 03:15:16;;;;;;;11.07;8.33;;;;;;;;;;5091304;28;20537;-73
2022/04/03 03:17:41;;;;;;;10.60;8.27;;;;;;;;;;5088652;28;20177;-74
2022/04/03 03:20:07;;;;;;;11.83;6.67;;;;;;;;;;5088305;28;20270;-73
2022/04/03 03:22:33;;;;;;;14.57;8.70;;;;;;;;;;5077793;28;20184;-73
2022/04/03 03:24:59;;;;;;;10.43;8.40;;;;;;;;;;5082466;28;20194;-74
2022/04/03 03:27:24;;;;;;;10.23;8.03;;;;;;;;;;5086584;28;20193;-73
2022/04/03 03:29:49;;;;;;;11.80;8.70;;;;;;;;;;5078526;28;20211;-73
2022/04/03 03:32:14;;;;;;;11.33;7.67;;;;;;;;;;5091794;28;20219;-73
2022/04/03 03:34:39;;;;;;;15.17;8.83;;;;;;;;;;5084242;28;20246;-73
2022/04/03 03:37:04;;;;;;;11.17;8.43;;;;;;;;;;5085322;28;20184;-73
2022/04/03 03:39:30;;;;;;;9.40;7.40;;;;;;;;;;5084334;28;20208;-74
2022/04/03 03:41:55;;;;;;;10.57;7.80;;;;;;;;;;5085057;28;20244;-73
2022/04/03 03:44:21;;;;;;;13.00;8.50;;;;;;;;;;5082745;28;20190;-73
2022/04/03 03:46:46;;;;;;;9.80;7.07;;;;;;;;;;5086053;28;20184;-73
2022/04/03 03:49:12;;;;;;;10.37;7.07;;;;;;;;;;5086128;28;20165;-73
2022/04/03 03:51:37;;;;;;;12.87;7.80;;;;;;;;;;5079330;28;20200;-73
2022/04/03 03:54:03;;;;;;;9.87;8.17;;;;;;;;;;5088106;28;20191;-74
2022/04/03 03:56:28;;;;;;;10.83;8.57;;;;;;;;;;5092751;28;20175;-74
2022/04/03 03:58:54;;;;;;;13.73;8.67;;;;;;;;;;5083466;28;20177;-74
2022/04/03 04:01:19;;;;;;;11.53;8.93;;;;;;;;;;5078403;28;20184;-74
2022/04/03 04:03:45;;;;;;;11.73;8.77;;;;;;;;;;5080812;28;20292;-74
2022/04/03 04:06:10;;;;;;;13.20;7.90;;;;;;;;;;5086043;28;20196;-74
2022/04/03 04:08:35;;;;;;;11.03;7.80;;;;;;;;;;5089129;28;20214;-74
2022/04/03 04:11:00;;;;;;;10.37;7.77;;;;;;;;;;5087214;28;20369;-74
2022/04/03 04:13:25;;;;;;;11.07;8.17;;;;;;;;;;5085243;28;20199;-74
2022/04/03 04:15:51;;;;;;;11.73;7.70;;;;;;;;;;5092782;28;20232;-74
2022/04/03 04:18:16;;;;;;;10.25;7.88;;;;;;;;;;5089369;28;20222;-74
2022/04/03 04:20:41;;;;;;;9.30;7.43;;;;;;;;;;5085955;28;20203;-74
2022/04/03 04:23:06;;;;;;;10.53;7.77;;;;;;;;;;5087778;28;20180;-74
2022/04/03 04:25:31;;;;;;;9.00;7.13;;;;;;;;;;5088913;28;20176;-74
2022/04/03 04:27:57;;;;;;;11.87;8.20;;;;;;;;;;5086976;28;20188;-74
2022/04/03 04:30:22;;;;;;;11.73;8.30;;;;;;;;;;5082855;28;20204;-74
2022/04/03 04:32:47;;;;;;;10.13;7.03;;;;;;;;;;5086628;28;20226;-74
2022/04/03 04:35:13;;;;;;;10.63;7.83;;;;;;;;;;5082428;28;20271;-74
2022/04/03 04:37:38;;;;;;;11.13;7.63;;;;;;;;;;5093007;28;20176;-74
2022/04/03 04:40:05;;;;;;;13.47;8.90;;;;;;;;;;5085360;28;20277;-74
2022/04/03 04:42:30;;;;;;;12.37;7.70;;;;;;;;;;5086163;28;20301;-74
2022/04/03 04:44:55;;;;;;;12.20;7.80;;;;;;;;;;5082175;28;20230;-74
2022/04/03 04:47:20;;;;;;;14.82;9.43;;;;;;;;;;5086393;28;20180;-74
2022/04/03 04:49:46;;;;;;;11.10;7.53;;;;;;;;;;5083526;28;20173;-74
2022/04/03 04:52:11;;;;;;;12.23;7.87;;;;;;;;;;5078903;28;20296;-74
2022/04/03 04:54:38;;;;;;;11.60;8.10;;;;;;;;;;5090815;28;20176;-75
2022/04/03 04:57:03;;;;;;;10.43;7.97;;;;;;;;;;5082126;28;20206;-74
2022/04/03 04:59:28;;;;;;;10.00;7.57;;;;;;;;;;5089469;28;20172;-74
2022/04/03 05:01:59;;;;;;;10.77;7.07;;;;;;;;;;5088068;28;20244;-74
2022/04/03 05:04:24;;;;;;;11.63;7.20;;;;;;;;;;5083914;28;20224;-74
2022/04/03 05:06:50;;;;;;;10.23;6.60;;;;;;;;;;5085037;28;20211;-73
2022/04/03 05:09:17;;;;;;;12.90;8.93;;;;;;;;;;5087498;28;20176;-74
2022/04/03 05:11:43;;;;;;;12.53;9.27;;;;;;;;;;5085502;28;20204;-74
2022/04/03 05:14:08;;;;;;;11.23;7.90;;;;;;;;;;5085201;28;20173;-74
2022/04/03 05:16:34;;;;;;;9.23;6.63;;;;;;;;;;5090292;28;20277;-74
2022/04/03 05:18:59;;;;;;;12.13;8.47;;;;;;;;;;5083983;28;20180;-74
2022/04/03 05:21:24;;;;;;;12.43;8.27;;;;;;;;;;5083229;28;20184;-73
2022/04/03 05:23:49;;;;;;;11.50;7.63;;;;;;;;;;5084683;28;20177;-74
2022/04/03 05:26:16;;;;;;;12.10;9.03;;;;;;;;;;5085541;28;20185;-74
2022/04/03 05:28:42;;;;;;;9.20;7.53;;;;;;;;;;5092670;28;20181;-73
2022/04/03 05:31:07;;;;;;;13.13;7.93;;;;;;;;;;5087084;28;20214;-74
2022/04/03 05:33:32;;;;;;;11.20;8.70;;;;;;;;;;5088986;28;20176;-74
2022/04/03 05:35:57;;;;;;;12.00;8.80;;;;;;;;;;5087368;28;20176;-74
2022/04/03 05:38:23;;;;;;;11.43;7.93;;;;;;;;;;5091173;28;20210;-74
2022/04/03 05:40:48;;;;;;;12.23;7.87;;;;;;;;;;5090356;28;20176;-74
2022/04/03 05:43:13;;;;;;;5.90;4.50;;;;;;;;;;5091710;28;20491;-74
2022/04/03 05:45:38;;;;;;;8.57;7.23;;;;;;;;;;5089660;28;20175;-74
2022/04/03 05:48:07;;;;;;;10.33;7.67;;;;;;;;;;5094207;28;20169;-74
2022/04/03 05:50:32;;;;;;;9.80;7.07;;;;;;;;;;5085703;28;20180;-74
2022/04/03 05:52:57;;;;;;;10.00;6.23;;;;;;;;;;5088301;28;20173;-73
2022/04/03 05:55:23;;;;;;;8.50;6.20;;;;;;;;;;5083430;28;20173;-74
2022/04/03 05:57:49;;;;;;;4.63;4.23;;;;;;;;;;5093025;28;20275;-73
2022/04/03 06:00:15;;;;;;;9.43;6.53;;;;;;;;;;5085099;28;20181;-74
2022/04/03 06:03:01;;;;;;;9.73;6.60;;;;;;;;;;5090552;28;20204;-73
2022/04/03 06:05:31;;;;;;;8.77;6.60;;;;;;;;;;5087644;28;20274;-74
2022/04/03 06:07:57;;;;;;;11.17;7.00;;;;;;;;;;5090120;28;20169;-74
2022/04/03 06:10:23;;;;;;;9.07;6.13;;;;;;;;;;5090174;28;20179;-74
2022/04/03 06:12:56;;;;;;;9.93;6.43;;;;;;;;;;5090499;28;20232;-74
2022/04/03 06:15:25;;;;;;;9.67;6.73;;;;;;;;;;5100202;28;20218;-74
2022/04/03 06:17:51;;;;;;;8.70;6.17;;;;;;;;;;5087150;28;20165;-74
2022/04/03 06:20:17;;;;;;;8.97;7.13;;;;;;;;;;5088986;28;20180;-74
2022/04/03 06:22:42;;;;;;;6.90;5.63;;;;;;;;;;5088345;28;20180;-74
2022/04/03 06:25:08;;;;;;;10.10;6.90;;;;;;;;;;5088693;28;20218;-74
2022/04/03 06:27:34;;;;;;;7.53;5.83;;;;;;;;;;5089170;28;20177;-74
2022/04/03 06:29:59;;;;;;;9.00;6.13;;;;;;;;;;5094141;28;20189;-74
2022/04/03 06:32:24;;;;;;;10.43;7.15;;;;;;;;;;5081670;28;20223;-74
2022/04/03 06:34:49;;;;;;;9.77;7.07;;;;;;;;;;5081392;28;20224;-74
2022/04/03 06:37:14;;;;;;;12.50;8.00;;;;;;;;;;5091929;28;20179;-74
2022/04/03 06:39:39;;;;;;;9.93;5.93;;;;;;;;;;5081980;28;20189;-74
2022/04/03 06:42:05;;;;;;;10.18;5.32;;;;;;;;;;5086113;28;20205;-74
2022/04/03 06:44:30;;;;;;;10.60;7.73;;;;;;;;;;5083954;28;20191;-74
2022/04/03 06:46:55;;;;;;;10.03;7.63;;;;;;;;;;5085593;28;20179;-74
2022/04/03 06:49:21;;;;;;;7.27;4.10;;;;;;;;;;5082856;28;20183;-74
2022/04/03 06:51:46;;;;;;;5.93;4.40;;;;;;;;;;5081519;28;20200;-74
2022/04/03 06:54:11;;;;;;;9.70;6.27;;;;;;;;;;5086640;28;20196;-74
2022/04/03 06:56:36;;;;;;;7.90;6.05;;;;;;;;;;5096081;28;20244;-74
2022/04/03 06:59:01;;;;;;;9.57;5.83;;;;;;;;;;5089781;28;20208;-74
2022/04/03 07:01:27;;;;;;;9.80;6.50;;;;;;;;;;5088742;28;20314;-74
2022/04/03 07:03:52;;;;;;;8.23;6.27;;;;;;;;;;5086827;28;20239;-74
2022/04/03 07:06:17;;;;;;;9.87;7.60;;;;;;;;;;5093727;28;20212;-74
2022/04/03 07:08:43;;;;;;;9.37;6.37;;;;;;;;;;5087123;28;20193;-74
2022/04/03 07:11:10;;;;;;;9.43;5.43;;;;;;;;;;5092167;28;20223;-74
2022/04/03 07:13:35;;;;;;;8.93;6.30;;;;;;;;;;5085854;28;20170;-74
2022/04/03 07:16:00;;;;;;;11.90;5.63;;;;;;;;;;5091580;28;20235;-74
2022/04/03 07:18:26;;;;;;;11.63;7.10;;;;;;;;;;5090162;28;20173;-74
2022/04/03 07:20:51;;;;;;;14.53;7.90;;;;;;;;;;5088918;28;20200;-73
2022/04/03 07:23:16;;;;;;;9.53;5.50;;;;;;;;;;5082568;28;20177;-74
2022/04/03 07:25:41;;;;;;;7.10;5.30;;;;;;;;;;5076802;28;20188;-74
2022/04/03 07:28:06;;;;;;;7.97;5.33;;;;;;;;;;5085524;28;20174;-74
2022/04/03 07:30:32;;;;;;;8.17;4.83;;;;;;;;;;5086897;28;20250;-74
2022/04/03 07:32:57;;;;;;;9.40;6.00;;;;;;;;;;5084747;28;20205;-75
2022/04/03 07:35:23;;;;;;;7.17;5.67;;;;;;;;;;5086090;28;20168;-74
2022/04/03 07:37:48;;;;;;;7.00;5.33;;;;;;;;;;5088352;28;20187;-74
2022/04/03 07:40:13;;;;;;;7.40;6.23;;;;;;;;;;5082418;28;20224;-74
2022/04/03 07:42:39;;;;;;;6.13;4.67;;;;;;;;;;5082434;28;20179;-74
2022/04/03 07:45:05;;;;;;;6.70;5.07;;;;;;;;;;5083187;28;20280;-74
2022/04/03 07:47:30;;;;;;;7.10;4.90;;;;;;;;;;5089569;28;20248;-74
2022/04/03 07:49:55;;;;;;;6.07;5.23;;;;;;;;;;5080882;28;20172;-74
2022/04/03 07:52:20;;;;;;;8.30;5.63;;;;;;;;;;5085519;28;20205;-74
2022/04/03 07:54:46;;;;;;;6.83;5.67;;;;;;;;;;5087600;28;20204;-74
2022/04/03 07:57:11;;;;;;;6.33;4.73;;;;;;;;;;5083155;28;20191;-74
2022/04/03 07:59:36;;;;;;;5.40;3.93;;;;;;;;;;5080181;28;20172;-74
2022/04/03 08:02:01;;;;;;;7.50;5.00;;;;;;;;;;5087100;28;20188;-74
2022/04/03 08:04:27;;;;;;;5.23;4.13;;;;;;;;;;5085013;28;20192;-74
2022/04/03 08:06:52;;;;;;;8.40;5.77;;;;;;;;;;5087602;28;20176;-74
2022/04/03 08:09:17;;;;;;;7.67;5.03;;;;;;;;;;5082346;28;20173;-74
2022/04/03 08:11:42;;;;;;;6.97;4.87;;;;;;;;;;5086996;28;20200;-74
2022/04/03 08:14:08;;;;;;;4.67;4.20;;;;;;;;;;5082850;28;20177;-74
2022/04/03 08:16:33;;;;;;;6.20;4.40;;;;;;;;;;5085993;28;20224;-74
2022/04/03 08:19:00;;;;;;;5.23;4.43;;;;;;;;;;5076423;28;20198;-74
2022/04/03 08:21:25;;;;;;;5.10;4.30;;;;;;;;;;5077331;28;20188;-74
2022/04/03 08:23:50;;;;;;;6.17;3.37;;;;;;;;;;5082787;28;20195;-73
2022/04/03 08:26:17;;;;;;;5.63;4.40;;;;;;;;;;5087769;28;20180;-74
2022/04/03 08:28:42;;;;;;;7.70;5.17;;;;;;;;;;5081145;28;20645;-74
2022/04/03 08:31:07;;;;;;;5.10;3.87;;;;;;;;;;5076395;28;20201;-74
2022/04/03 08:33:32;;;;;;;4.67;4.23;;;;;;;;;;5089475;28;20172;-74
2022/04/03 08:35:58;;;;;;;8.20;4.57;;;;;;;;;;5081590;28;20181;-74
2022/04/03 08:38:23;;;;;;;5.50;4.90;;;;;;;;;;5088575;28;20177;-74
2022/04/03 08:40:49;;;;;;;8.87;5.57;;;;;;;;;;5088552;28;20180;-74
2022/04/03 08:43:14;;;;;;;5.07;4.10;;;;;;;;;;5084336;28;20187;-74
2022/04/03 08:45:39;;;;;;;5.77;4.87;;;;;;;;;;5087553;28;20230;-74
2022/04/03 08:48:05;;;;;;;7.60;5.60;;;;;;;;;;5092207;28;20272;-74
2022/04/03 08:50:32;;;;;;;6.83;5.20;;;;;;;;;;5088297;28;20179;-74
2022/04/03 08:52:59;;;;;;;6.77;5.43;;;;;;;;;;5080251;28;20208;-74
2022/04/03 08:55:24;;;;;;;7.33;5.50;;;;;;;;;;5094865;28;20176;-74
2022/04/03 08:57:49;;;;;;;6.77;5.33;;;;;;;;;;5088161;28;20172;-74
2022/04/03 09:00:15;;;;;;;8.37;5.87;;;;;;;;;;5092622;28;20183;-74
2022/04/03 09:02:40;;;;;;;7.90;6.07;;;;;;;;;;5089104;28;20202;-74
2022/04/03 09:05:06;;;;;;;4.40;4.00;;;;;;;;;;5088641;28;20200;-74
2022/04/03 09:07:31;;;;;;;6.10;5.27;;;;;;;;;;5085446;28;20179;-74
2022/04/03 09:10:05;;;;;;;7.20;5.70;;;;;;;;;;5088511;28;20248;-74
2022/04/03 09:12:31;;;;;;;9.13;6.03;;;;;;;;;;5085995;28;20199;-74
2022/04/03 09:14:57;;;;;;;8.03;6.17;;;;;;;;;;5092205;28;20228;-74
2022/04/03 09:17:32;;;;;;;8.07;5.50;;;;;;;;;;5093562;28;20184;-74
2022/04/03 09:20:05;;;;;;;10.50;5.70;;;;;;;;;;5092390;28;20221;-73
2022/04/03 09:22:30;;;;;;;6.37;5.47;;;;;;;;;;5094097;28;20177;-75
2022/04/03 09:24:55;;;;;;;6.40;5.13;;;;;;;;;;5085164;28;20234;-74
2022/04/03 09:27:20;;;;;;;8.47;5.70;;;;;;;;;;5092041;28;20195;-74
2022/04/03 09:29:46;;;;;;;6.43;4.57;;;;;;;;;;5092766;28;20182;-73
2022/04/03 09:32:11;;;;;;;5.83;4.73;;;;;;;;;;5094757;28;20192;-74
2022/04/03 09:34:38;;;;;;;7.87;5.60;;;;;;;;;;5092640;28;20180;-74
2022/04/03 09:37:06;;;;;;;6.67;4.83;;;;;;;;;;5090014;28;20172;-73
2022/04/03 09:39:32;;;;;;;7.17;5.33;;;;;;;;;;5081893;28;20226;-74
2022/04/03 09:41:58;;;;;;;7.13;5.20;;;;;;;;;;5093320;28;20258;-74
2022/04/03 09:44:34;;;;;;;6.07;4.93;;;;;;;;;;5090858;28;20169;-74
2022/04/03 09:47:19;;;;;;;7.47;4.50;;;;;;;;;;5088787;28;20180;-74
2022/04/03 09:49:49;;;;;;;6.37;4.73;;;;;;;;;;5100103;27;20285;-74
2022/04/03 09:52:31;;;;;;;6.97;5.20;;;;;;;;;;5089102;28;20235;-74
2022/04/03 09:54:56;;;;;;;5.83;5.00;;;;;;;;;;5093832;28;20173;-74
2022/04/03 09:57:23;;;;;;;6.23;5.10;;;;;;;;;;5091804;28;20317;-74
2022/04/03 09:59:53;;;;;;;7.73;5.37;;;;;;;;;;5087420;28;20161;-74
2022/04/03 10:02:19;;;;;;;7.17;4.83;;;;;;;;;;5089464;28;20196;-73
2022/04/03 10:04:44;;;;;;;7.17;4.97;;;;;;;;;;5086716;28;20200;-73
2022/04/03 10:07:12;;;;;;;6.27;4.93;;;;;;;;;;5094962;28;20181;-73
2022/04/03 10:09:39;;;;;;;9.57;5.40;;;;;;;;;;5090848;28;20187;-73
2022/04/03 10:12:05;;;;;;;6.30;4.27;;;;;;;;;;5089285;28;20208;-73
2022/04/03 10:14:31;;;;;;;7.97;4.30;;;;;;;;;;5088268;28;20204;-74
2022/04/03 10:16:57;;;;;;;5.70;4.77;;;;;;;;;;5080571;28;20174;-74
2022/04/03 10:19:22;;;;;;;5.50;4.83;;;;;;;;;;5089601;28;20172;-74
2022/04/03 10:21:49;;;;;;;5.03;4.17;;;;;;;;;;5088992;28;20172;-74
2022/04/03 10:24:16;;;;;;;6.23;4.53;;;;;;;;;;5084907;28;20176;-74
2022/04/03 10:26:43;;;;;;;6.33;4.73;;;;;;;;;;5088751;28;20185;-74
2022/04/03 10:29:09;;;;;;;9.57;5.20;;;;;;;;;;5087356;28;20260;-74
2022/04/03 10:31:38;;;;;;;4.53;4.10;;;;;;;;;;5084961;28;20212;-74
2022/04/03 10:34:03;;;;;;;8.53;4.73;;;;;;;;;;5088459;28;20180;-73
2022/04/03 10:36:30;;;;;;;21.80;14.80;;;;;;;;;;5080516;28;20273;-74
2022/04/03 10:39:04;;;;;;;20.37;9.27;;;;;;;;;;5082913;28;20197;-73
2022/04/03 10:41:30;;;;;;;4.73;3.60;;;;;;;;;;5087095;28;20177;-73
2022/04/03 10:44:14;;;;;;;5.73;4.90;;;;;;;;;;5087015;28;20177;-72
2022/04/03 10:46:58;;;;;;;6.93;4.47;;;;;;;;;;5085892;28;20195;-73
2022/04/03 10:49:28;;;;;;;6.30;3.67;;;;;;;;;;5082845;28;20171;-73
2022/04/03 10:51:57;;;;;;;18.93;12.70;;;;;;;;;;5086067;28;20205;-73
2022/04/03 10:54:29;;;;;;;5.33;4.43;;;;;;;;;;5085213;28;20173;-73
2022/04/03 10:57:14;;;;;;;7.03;2.77;;;;;;;;;;5092860;28;20176;-73
2022/04/03 10:59:39;;;;;;;8.07;4.30;;;;;;;;;;5079945;28;20208;-73
2022/04/03 11:02:14;;;;;;;6.07;3.23;;;;;;;;;;5088124;28;20181;-72
2022/04/03 11:04:39;;;;;;;3.37;3.07;;;;;;;;;;5085898;28;20290;-73
2022/04/03 11:07:14;;;;;;;4.80;4.13;;;;;;;;;;5084896;28;20278;-73
2022/04/03 11:09:46;;;;;;;7.10;4.80;;;;;;;;;;5085073;28;20263;-73
2022/04/03 11:12:11;;;;;;;6.33;4.87;;;;;;;;;;5087895;28;20200;-73
2022/04/03 11:14:51;;;;;;;6.83;4.73;;;;;;;;;;5087037;28;20173;-73
2022/04/03 11:17:17;;;;;;;5.97;5.47;;;;;;;;;;5088373;28;20172;-73
2022/04/03 11:19:47;;;;;;;4.60;4.07;;;;;;;;;;5083047;28;20184;-73
2022/04/03 11:22:14;;;;;;;7.50;5.27;;;;;;;;;;5088607;28;20212;-73
2022/04/03 11:24:39;;;;;;;4.60;4.07;;;;;;;;;;5082373;28;20181;-73
2022/04/03 11:27:05;;;;;;;6.13;5.00;;;;;;;;;;5087993;28;20185;-73
2022/04/03 11:29:31;;;;;;;12.50;11.50;;;;;;;;;;5087567;28;20252;-72
2022/04/03 11:31:56;;;;;;;5.10;4.60;;;;;;;;;;5088570;28;20196;-72
2022/04/03 11:34:27;;;;;;;5.07;4.50;;;;;;;;;;5083962;28;20179;-73
2022/04/03 11:36:55;;;;;;;6.37;5.63;;;;;;;;;;5081639;28;20185;-73
2022/04/03 11:39:21;;;;;;;5.27;4.57;;;;;;;;;;5081803;28;20178;-73
2022/04/03 11:41:50;;;;;;;5.17;4.57;;;;;;;;;;5077622;28;20188;-72
2022/04/03 11:44:15;;;;;;;5.17;4.27;;;;;;;;;;5089290;28;20269;-73
2022/04/03 11:46:42;;;;;;;5.87;4.83;;;;;;;;;;5091570;28;20173;-73
2022/04/03 11:49:10;;;;;;;5.80;4.97;;;;;;;;;;5087442;28;20192;-73
2022/04/03 11:51:36;;;;;;;6.37;5.47;;;;;;;;;;5087994;28;20201;-73
2022/04/03 11:54:01;;;;;;;6.73;4.00;;;;;;;;;;5090085;28;20179;-73
2022/04/03 11:56:29;;;;;;;5.67;4.27;;;;;;;;;;5084295;28;20257;-73
2022/04/03 11:58:55;;;;;;;6.27;5.10;;;;;;;;;;5079161;28;21873;-73
2022/04/03 12:01:24;;;;;;;5.83;4.87;;;;;;;;;;5075418;28;20173;-73
2022/04/03 12:03:57;;;;;;;6.27;5.30;;;;;;;;;;5080911;28;20197;-73
2022/04/03 12:06:22;;;;;;;6.20;4.50;;;;;;;;;;5083950;28;20185;-73
2022/04/03 12:08:48;;;;;;;6.50;4.70;;;;;;;;;;5092091;28;20180;-72
2022/04/03 12:11:24;;;;;;;6.70;4.50;;;;;;;;;;5090778;28;20200;-73
2022/04/03 12:13:50;;;;;;;5.30;4.67;;;;;;;;;;5077982;28;20197;-72
2022/04/03 12:16:17;;;;;;;6.37;5.00;;;;;;;;;;5089155;28;20307;-73
2022/04/03 12:18:57;;;;;;;6.83;5.00;;;;;;;;;;5083980;28;20172;-73
2022/04/03 12:21:36;;;;;;;8.40;5.63;;;;;;;;;;5084186;28;20181;-73
2022/04/03 12:24:07;;;;;;;5.10;4.40;;;;;;;;;;5088470;28;20187;-72
2022/04/03 12:26:33;;;;;;;6.63;4.50;;;;;;;;;;5087103;28;20295;-72
2022/04/03 12:28:58;;;;;;;6.30;4.63;;;;;;;;;;5085534;28;20271;-73
2022/04/03 12:31:28;;;;;;;6.90;5.50;;;;;;;;;;5077319;28;20188;-72
2022/04/03 12:34:12;;;;;;;5.17;4.17;;;;;;;;;;5079359;28;20184;-72
2022/04/03 12:36:38;;;;;;;8.90;5.20;;;;;;;;;;5084647;28;20181;-72
2022/04/03 12:39:04;;;;;;;8.17;5.00;;;;;;;;;;5081494;28;20176;-72
2022/04/03 12:41:29;;;;;;;7.73;4.93;;;;;;;;;;5080283;28;20176;-72
2022/04/03 12:43:58;;;;;;;5.60;4.50;;;;;;;;;;5090766;28;20179;-72
2022/04/03 12:46:25;;;;;;;6.87;4.40;;;;;;;;;;5086387;28;20181;-73
2022/04/03 12:48:51;;;;;;;5.70;4.47;;;;;;;;;;5080151;28;20172;-73
2022/04/03 12:51:16;;;;;;;6.50;5.23;;;;;;;;;;5081468;28;20196;-72
2022/04/03 12:53:50;;;;;;;6.87;4.30;;;;;;;;;;5092688;28;20562;-73
2022/04/03 12:56:15;;;;;;;7.33;4.40;;;;;;;;;;5081374;28;20175;-73
2022/04/03 12:58:42;;;;;;;9.00;5.13;;;;;;;;;;5086944;28;20185;-72
2022/04/03 13:01:14;;;;;;;9.47;4.90;;;;;;;;;;5079316;28;20309;-73
2022/04/03 13:03:39;;;;;;;5.23;4.70;;;;;;;;;;5090119;28;20172;-73
2022/04/03 13:06:10;;;;;;;5.30;4.80;;;;;;;;;;5078339;28;20207;-73
2022/04/03 13:09:02;;;;;;;5.57;4.70;;;;;;;;;;5082449;28;20183;-73
2022/04/03 13:11:39;;;;;;;6.83;5.90;;;;;;;;;;5071460;28;20204;-72
2022/04/03 13:14:15;;;;;;;5.67;4.80;;;;;;;;;;5082093;28;20169;-73
2022/04/03 13:16:40;;;;;;;4.97;3.57;;;;;;;;;;5082864;28;20238;-72
2022/04/03 13:19:06;;;;;;;6.50;4.83;;;;;;;;;;5081820;28;20195;-72
2022/04/03 13:21:34;;;;;;;6.20;4.57;;;;;;;;;;5081166;28;20184;-73
2022/04/03 13:23:59;;;;;;;6.80;5.20;;;;;;;;;;5081892;28;20211;-72
2022/04/03 13:26:24;;;;;;;8.47;4.73;;;;;;;;;;5082375;28;20212;-73
2022/04/03 13:28:49;;;;;;;5.30;4.60;;;;;;;;;;5081058;28;20173;-73
2022/04/03 13:31:14;;;;;;;7.03;4.20;;;;;;;;;;5076885;28;20212;-73
2022/04/03 13:33:40;;;;;;;5.70;4.90;;;;;;;;;;5085299;28;20188;-72
2022/04/03 13:36:05;;;;;;;6.40;4.47;;;;;;;;;;5085406;28;20177;-73
2022/04/03 13:38:30;;;;;;;5.30;3.93;;;;;;;;;;5087725;28;20174;-73
2022/04/03 13:40:56;;;;;;;6.20;4.93;;;;;;;;;;5081846;28;20180;-73
2022/04/03 13:43:21;;;;;;;7.53;5.53;;;;;;;;;;5083603;28;20169;-73
2022/04/03 13:45:56;;;;;;;7.93;5.10;;;;;;;;;;5086774;28;20203;-72
2022/04/03 13:48:26;;;;;;;6.03;4.93;;;;;;;;;;5092303;28;20191;-73
2022/04/03 13:50:53;;;;;;;4.97;4.40;;;;;;;;;;5084704;28;20417;-73
2022/04/03 13:53:18;;;;;;;7.70;5.63;;;;;;;;;;5086526;28;20192;-73
2022/04/03 13:55:44;;;;;;;7.23;5.67;;;;;;;;;;5096805;27;20181;-73
2022/04/03 13:58:09;;;;;;;6.60;5.43;;;;;;;;;;5084287;28;20222;-73
2022/04/03 14:00:34;;;;;;;6.83;4.73;;;;;;;;;;5090419;28;20192;-73
2022/04/03 14:02:59;;;;;;;6.57;5.53;;;;;;;;;;5084873;28;20276;-73
2022/04/03 14:05:24;;;;;;;8.43;4.63;;;;;;;;;;5088001;28;20205;-72
2022/04/03 14:07:50;;;;;;;7.37;4.33;;;;;;;;;;5085910;28;20183;-73
2022/04/03 14:10:15;;;;;;;6.33;4.47;;;;;;;;;;5086536;28;20176;-72
2022/04/03 14:12:40;;;;;;;8.80;4.83;;;;;;;;;;5085502;28;20209;-72
2022/04/03 14:15:06;;;;;;;5.80;4.73;;;;;;;;;;5085175;28;20270;-72
2022/04/03 14:17:31;;;;;;;8.63;5.17;;;;;;;;;;5087462;28;20176;-72
2022/04/03 14:19:56;;;;;;;4.80;4.37;;;;;;;;;;5087374;28;20208;-73
2022/04/03 14:22:22;;;;;;;6.23;4.70;;;;;;;;;;5080428;28;20179;-73
2022/04/03 14:24:47;;;;;;;5.93;5.30;;;;;;;;;;5088997;28;20207;-73
2022/04/03 14:27:12;;;;;;;6.10;4.87;;;;;;;;;;5082900;28;20187;-72
2022/04/03 14:29:39;;;;;;;6.83;5.23;;;;;;;;;;5082851;28;20181;-73
2022/04/03 14:32:05;;;;;;;6.03;5.07;;;;;;;;;;5075871;28;20192;-72
2022/04/03 14:34:30;;;;;;;4.90;4.13;;;;;;;;;;5083631;28;20181;-73